Time;durP1;ratioP1;P1;durP2;ratioP2;P2;SDS_P1;SDS_P2;PMS_P1;PMS_P2;Temp;Humidity;BMP_temperature;BMP_pressure;BME280_temperature;BME280_humidity;BME280_pressure;Samples;Min_cycle;Max_cycle;Signal;HPM_P1;HPM_P2
2023/05/09 04:32:21;;;;;;;;;3.00;3.00;;;;;15.76;68.29;101193.50;3292311;26;46094;-78
2023/05/09 04:34:46;;;;;;;;;1.00;1.00;;;;;15.60;67.14;101171.03;5033156;28;45323;-78
2023/05/09 04:37:12;;;;;;;;;1.00;1.00;;;;;15.59;66.99;101177.41;5034569;28;52308;-77
2023/05/09 04:39:37;;;;;;;;;1.00;1.00;;;;;15.44;67.42;101147.63;5034895;28;45373;-77
2023/05/09 04:42:03;;;;;;;;;3.00;1.00;;;;;15.67;67.05;101175.13;5034561;28;45423;-78
2023/05/09 04:44:30;;;;;;;;;2.00;1.00;;;;;15.61;67.46;101172.78;5034479;28;45485;-77
2023/05/09 04:46:56;;;;;;;;;1.00;1.00;;;;;15.61;66.77;101170.97;5034268;28;45345;-77
2023/05/09 04:49:22;;;;;;;;;1.00;1.00;;;;;15.50;66.79;101157.19;5034549;28;45295;-76
2023/05/09 04:51:49;;;;;;;;;0.25;0.25;;;;;15.65;67.30;101177.91;5034319;28;46350;-78
2023/05/09 04:54:14;;;;;;;;;3.00;1.00;;;;;15.54;67.71;101145.28;5034356;28;45585;-77
2023/05/09 04:56:40;;;;;;;;;0.75;0.75;;;;;15.71;67.91;101164.03;5034170;28;49075;-77
2023/05/09 04:59:05;;;;;;;;;1.00;1.00;;;;;15.66;67.95;101162.56;5034302;28;46043;-78
2023/05/09 05:01:30;;;;;;;;;1.00;1.00;;;;;15.69;67.98;101163.25;5034146;28;45264;-77
2023/05/09 05:03:55;;;;;;;;;2.50;1.00;;;;;15.60;68.23;101163.81;5033876;28;48013;-76
2023/05/09 05:06:21;;;;;;;;;1.50;1.50;;;;;15.60;68.80;101161.09;5034047;28;50491;-79
2023/05/09 05:08:46;;;;;;;;;0.75;0.75;;;;;15.59;68.16;101156.66;5034427;28;45308;-80
2023/05/09 05:11:12;;;;;;;;;1.25;1.25;;;;;15.51;68.68;101140.00;5037265;28;45339;-78
2023/05/09 05:13:37;;;;;;;;;2.00;2.00;;;;;15.59;68.86;101151.25;5034674;28;45333;-76
2023/05/09 05:16:03;;;;;;;;;1.50;1.00;;;;;15.50;68.72;101138.25;5034315;28;45339;-80
2023/05/09 05:18:28;;;;;;;;;1.00;1.00;;;;;15.60;69.15;101144.88;5034102;28;45469;-80
2023/05/09 05:20:54;;;;;;;;;2.00;2.00;;;;;15.59;69.59;101142.28;5034653;28;45309;-77
2023/05/09 05:23:19;;;;;;;;;1.75;1.00;;;;;15.57;70.06;101130.72;5033784;28;46170;-79
2023/05/09 05:25:45;;;;;;;;;1.00;1.00;;;;;15.52;69.72;101121.00;5034601;28;45356;-79
2023/05/09 05:28:10;;;;;;;;;1.50;1.50;;;;;15.63;69.65;101144.72;5034254;28;45493;-77
2023/05/09 05:30:35;;;;;;;;;1.25;1.25;;;;;15.64;70.01;101138.34;5034427;28;45345;-76
2023/05/09 05:33:01;;;;;;;;;2.25;2.00;;;;;15.50;69.98;101116.63;5034602;28;49021;-78
2023/05/09 05:35:27;;;;;;;;;1.00;1.00;;;;;15.51;70.19;101130.06;5034432;28;45289;-79
2023/05/09 05:37:53;;;;;;;;;3.00;2.00;;;;;15.48;70.90;101132.94;5034631;28;45509;-76
2023/05/09 05:40:18;;;;;;;;;1.00;1.00;;;;;15.25;71.14;101100.16;5033943;28;49953;-80
2023/05/09 05:42:45;;;;;;;;;3.00;2.00;;;;;15.44;71.51;101134.09;5033784;28;45583;-81
2023/05/09 05:45:10;;;;;;;;;2.00;2.00;;;;;15.46;71.74;101121.38;5034469;28;45406;-80
2023/05/09 05:47:36;;;;;;;;;5.25;3.00;;;;;15.51;72.28;101131.91;5045650;28;45419;-73
2023/05/09 05:50:03;;;;;;;;;4.00;3.00;;;;;15.49;72.80;101123.88;5037222;28;45514;-75
2023/05/09 05:52:29;;;;;;;;;3.00;3.00;;;;;15.57;72.38;101125.31;5037214;28;45543;-76
2023/05/09 05:54:54;;;;;;;;;2.75;1.50;;;;;15.59;72.89;101126.94;5035850;28;45176;-76
2023/05/09 05:57:20;;;;;;;;;5.25;2.75;;;;;15.57;72.45;101112.63;5037378;28;45366;-77
2023/05/09 05:59:46;;;;;;;;;2.00;2.00;;;;;15.55;71.85;101117.28;5036919;28;45366;-74
2023/05/09 06:02:12;;;;;;;;;2.00;2.00;;;;;15.44;72.54;101092.69;5035239;28;46322;-78
2023/05/09 06:04:37;;;;;;;;;2.25;2.25;;;;;15.53;72.04;101105.66;5036469;28;45327;-83
2023/05/09 06:07:03;;;;;;;;;2.00;2.00;;;;;15.58;72.77;101110.81;5037177;28;45567;-78
2023/05/09 06:09:28;;;;;;;;;2.00;2.00;;;;;15.52;72.47;101096.69;5035433;28;45373;-80
2023/05/09 06:11:54;;;;;;;;;1.50;1.50;;;;;15.55;72.30;101097.50;5032849;28;45565;-83
2023/05/09 06:14:19;;;;;;;;;4.00;2.00;;;;;15.51;70.88;101092.22;5035161;28;45420;-81
2023/05/09 06:16:44;;;;;;;;;1.00;1.00;;;;;15.43;71.09;101078.31;5036978;28;45382;-81
2023/05/09 06:19:10;;;;;;;;;1.50;1.50;;;;;15.52;71.34;101091.28;5037583;28;45442;-81
2023/05/09 06:21:35;;;;;;;;;1.00;1.00;;;;;15.30;72.00;101054.84;5037016;28;45559;-82
2023/05/09 06:24:02;;;;;;;;;2.75;2.75;;;;;15.49;71.35;101090.56;5037071;28;45356;-81
2023/05/09 06:26:27;;;;;;;;;2.75;2.00;;;;;15.30;71.73;101066.53;5036991;28;45457;-82
2023/05/09 06:28:53;;;;;;;;;2.25;1.75;;;;;15.27;69.98;101065.84;5037625;28;45277;-82
2023/05/09 06:31:18;;;;;;;;;3.00;1.50;;;;;15.34;71.33;101078.00;5038488;28;45600;-81
2023/05/09 06:33:43;;;;;;;;;2.00;2.00;;;;;15.31;71.28;101078.22;5037305;28;45289;-80
2023/05/09 06:36:09;;;;;;;;;3.00;3.00;;;;;15.08;71.18;101022.84;5037561;28;45307;-81
2023/05/09 06:38:35;;;;;;;;;0.50;0.50;;;;;15.27;70.78;101061.31;5052194;28;46177;-80
2023/05/09 06:41:00;;;;;;;;;2.50;2.50;;;;;14.68;70.94;100978.47;5036589;28;46137;-80
2023/05/09 06:43:26;;;;;;;;;1.00;1.00;;;;;15.17;70.92;101056.53;5037694;28;45264;-82
2023/05/09 06:45:51;;;;;;;;;1.50;1.50;;;;;15.22;71.57;101073.34;5036383;28;45256;-80
2023/05/09 06:48:16;;;;;;;;;1.00;1.00;;;;;15.18;71.22;101069.97;5035699;28;45484;-81
2023/05/09 06:50:42;;;;;;;;;1.25;1.25;;;;;15.12;71.75;101057.69;5036355;28;45444;-81
2023/05/09 06:53:07;;;;;;;;;2.25;2.25;;;;;15.08;71.97;101055.25;5035837;28;45339;-79
2023/05/09 06:55:33;;;;;;;;;1.25;1.25;;;;;15.15;71.82;101059.31;5036184;28;45415;-79
2023/05/09 06:57:58;;;;;;;;;2.00;2.00;;;;;15.15;72.05;101062.03;5035865;28;45372;-80
2023/05/09 07:00:23;;;;;;;;;4.00;2.50;;;;;15.14;71.89;101054.91;5035304;28;46585;-80
2023/05/09 07:02:49;;;;;;;;;1.00;1.00;;;;;15.03;72.45;101035.78;5035923;28;45423;-81
2023/05/09 07:05:15;;;;;;;;;1.25;1.25;;;;;14.98;72.39;101019.81;5036151;28;45454;-80
2023/05/09 07:07:40;;;;;;;;;3.00;2.00;;;;;15.15;71.88;101035.03;5034347;28;45395;-79
2023/05/09 07:10:06;;;;;;;;;3.00;3.00;;;;;15.18;72.23;101045.66;5035947;28;45450;-81
2023/05/09 07:12:32;;;;;;;;;1.00;1.00;;;;;15.14;72.78;101034.16;5035846;28;45392;-80
2023/05/09 07:14:57;;;;;;;;;1.25;1.25;;;;;15.17;72.61;101025.00;5036464;28;45401;-80
2023/05/09 07:17:23;;;;;;;;;2.00;2.00;;;;;15.15;72.68;101026.91;5035724;28;45315;-80
2023/05/09 07:19:48;;;;;;;;;1.75;1.75;;;;;15.00;72.53;101007.13;5035958;28;45802;-81
2023/05/09 07:22:14;;;;;;;;;4.75;2.00;;;;;14.99;73.78;101007.19;5037196;28;45522;-78
2023/05/09 07:24:39;;;;;;;;;4.00;2.50;;;;;15.11;74.92;101015.44;5038292;28;45239;-80
2023/05/09 07:27:05;;;;;;;;;1.00;1.00;;;;;15.02;72.85;101009.72;5036584;28;45335;-79
2023/05/09 07:29:30;;;;;;;;;2.00;2.00;;;;;14.90;73.64;100991.56;5034932;28;46102;-80
2023/05/09 07:31:55;;;;;;;;;2.00;2.00;;;;;14.95;73.74;101011.06;5035449;28;45476;-81
2023/05/09 07:34:22;;;;;;;;;1.00;1.00;;;;;14.93;73.65;101004.88;5035962;28;45353;-80
2023/05/09 07:36:48;;;;;;;;;2.00;2.00;;;;;14.80;73.29;100969.63;5036013;28;45302;-80
2023/05/09 07:39:13;;;;;;;;;2.00;2.00;;;;;14.66;73.86;100939.91;5034238;28;47071;-80
2023/05/09 07:41:38;;;;;;;;;2.25;2.25;;;;;14.83;73.82;100955.97;5040306;28;45282;-80
2023/05/09 07:44:04;;;;;;;;;0.25;0.25;;;;;15.13;73.92;100999.16;5026380;28;45447;-81
2023/05/09 07:46:29;;;;;;;;;3.00;2.25;;;;;15.06;73.36;100968.94;5035630;28;45299;-82
2023/05/09 07:48:55;;;;;;;;;1.00;1.00;;;;;15.10;72.95;100969.63;5035548;28;47661;-80
2023/05/09 07:51:20;;;;;;;;;1.00;1.00;;;;;14.90;73.30;100945.66;5035768;28;45461;-81
2023/05/09 07:53:46;;;;;;;;;1.75;1.75;;;;;15.13;73.30;100982.97;5035790;28;45499;-80
2023/05/09 07:56:11;;;;;;;;;2.00;1.00;;;;;15.09;73.32;100963.34;5030828;28;46117;-83
2023/05/09 07:58:37;;;;;;;;;2.00;2.00;;;;;15.26;73.27;100983.94;5027682;28;45870;-80
2023/05/09 08:01:02;;;;;;;;;1.75;1.75;;;;;15.03;73.57;100942.13;5035441;28;45252;-80
2023/05/09 08:03:27;;;;;;;;;2.75;1.00;;;;;14.78;73.80;100893.31;5035365;28;45263;-81
2023/05/09 08:05:54;;;;;;;;;1.75;1.75;;;;;15.27;73.83;100963.19;5036308;28;45401;-80
2023/05/09 08:08:20;;;;;;;;;3.00;3.00;;;;;15.23;74.41;100967.03;5037341;28;45516;-81
2023/05/09 08:10:45;;;;;;;;;2.00;2.00;;;;;15.18;74.29;100959.22;5037545;28;45208;-81
2023/05/09 08:13:11;;;;;;;;;2.50;2.50;;;;;15.25;74.62;100957.00;5034802;28;45319;-80
2023/05/09 08:15:36;;;;;;;;;2.25;2.25;;;;;15.25;74.92;100968.69;5039007;28;45462;-80
2023/05/09 08:18:01;;;;;;;;;2.25;2.25;;;;;14.93;75.55;100929.28;5037508;28;46961;-80
2023/05/09 08:20:26;;;;;;;;;3.25;3.25;;;;;15.19;75.88;100970.91;5039779;28;45323;-80
2023/05/09 08:22:52;;;;;;;;;2.25;2.25;;;;;15.24;76.63;100963.38;5042173;28;45515;-81
2023/05/09 08:25:19;;;;;;;;;3.00;3.00;;;;;15.18;76.13;100948.41;5042502;28;45362;-79
2023/05/09 08:27:44;;;;;;;;;3.50;3.50;;;;;14.98;75.31;100897.47;5043134;28;45601;-80
2023/05/09 08:30:11;;;;;;;;;3.50;3.50;;;;;15.26;76.57;100946.13;5040386;28;45452;-81
2023/05/09 08:32:37;;;;;;;;;4.00;2.50;;;;;15.23;76.67;100927.38;5041362;28;45389;-80
2023/05/09 08:35:04;;;;;;;;;2.75;2.75;;;;;15.30;76.34;100934.16;5053326;28;46269;-80
2023/05/09 08:37:30;;;;;;;;;3.00;3.00;;;;;15.08;75.71;100890.53;5031576;28;46590;-80
2023/05/09 08:39:55;;;;;;;;;3.00;3.00;;;;;15.39;76.65;100948.94;5036579;28;45221;-81
2023/05/09 08:42:21;;;;;;;;;3.50;1.75;;;;;15.31;76.24;100925.06;5036526;28;45262;-79
2023/05/09 08:44:47;;;;;;;;;1.00;1.00;;;;;15.39;75.78;100935.44;5034894;28;45589;-81
2023/05/09 08:47:13;;;;;;;;;4.25;2.00;;;;;15.39;75.96;100933.59;5035145;28;45238;-80
2023/05/09 08:49:40;;;;;;;;;0.50;0.50;;;;;15.42;76.28;100936.09;5034402;28;45358;-80
2023/05/09 08:52:06;;;;;;;;;1.00;1.00;;;;;15.40;76.38;100931.72;5033602;28;45463;-80
2023/05/09 08:54:32;;;;;;;;;2.00;2.00;;;;;15.29;76.32;100918.94;5034770;28;45496;-81
2023/05/09 08:56:59;;;;;;;;;1.00;1.00;;;;;15.34;76.95;100927.59;5034509;28;46687;-80
2023/05/09 08:59:25;;;;;;;;;2.00;2.00;;;;;15.11;76.77;100893.94;5034675;28;45261;-80
2023/05/09 09:01:52;;;;;;;;;2.00;2.00;;;;;15.12;77.27;100909.16;5034427;28;45459;-80
2023/05/09 09:04:17;;;;;;;;;2.00;2.00;;;;;14.94;77.02;100883.31;5034069;28;45684;-80
2023/05/09 09:06:44;;;;;;;;;2.00;1.00;;;;;14.90;77.24;100878.16;5034161;28;45242;-80
2023/05/09 09:09:11;;;;;;;;;2.00;2.00;;;;;14.61;77.96;100818.78;5034256;28;45500;-81
2023/05/09 09:11:39;;;;;;;;;4.50;2.00;;;;;15.19;78.50;100906.06;5034733;28;45347;-79
2023/05/09 09:14:15;;;;;;;;;1.00;1.00;;;;;15.21;77.25;100899.63;5034179;28;45552;-81
2023/05/09 09:16:43;;;;;;;;;1.00;1.00;;;;;15.23;77.64;100908.47;5029486;28;47256;-82
2023/05/09 09:19:11;;;;;;;;;3.75;2.50;;;;;15.06;77.70;100877.13;5034034;28;45372;-81
2023/05/09 09:21:40;;;;;;;;;2.00;2.00;;;;;15.12;77.70;100894.81;5036477;28;45499;-81
2023/05/09 09:24:06;;;;;;;;;4.00;2.00;;;;;14.95;77.93;100866.16;5037963;28;45287;-80
2023/05/09 09:26:32;;;;;;;;;2.00;2.00;;;;;15.06;78.11;100898.72;5037475;28;45472;-81
2023/05/09 09:28:57;;;;;;;;;1.00;1.00;;;;;15.05;78.63;100897.03;5036392;28;45402;-80
2023/05/09 09:31:30;;;;;;;;;2.50;1.25;;;;;14.97;79.49;100895.75;5036289;28;45892;-81
2023/05/09 09:34:00;;;;;;;;;2.00;2.00;;;;;15.01;79.63;100892.75;5037680;28;45338;-80
2023/05/09 09:36:27;;;;;;;;;3.00;2.00;;;;;15.05;79.35;100899.72;5038094;28;47349;-81
2023/05/09 09:38:59;;;;;;;;;3.50;2.00;;;;;14.97;80.12;100899.28;5037851;28;45318;-81
2023/05/09 09:41:35;;;;;;;;;1.00;1.00;;;;;14.95;79.71;100894.97;5037796;28;45438;-81
2023/05/09 09:44:11;;;;;;;;;2.00;1.50;;;;;14.81;80.37;100865.25;5037854;28;45398;-80
2023/05/09 09:46:44;;;;;;;;;3.00;1.50;;;;;14.88;79.89;100872.03;5035660;28;48070;-81
2023/05/09 09:49:11;;;;;;;;;1.00;1.00;;;;;14.93;79.68;100869.91;5033331;28;45548;-81
2023/05/09 09:51:36;;;;;;;;;1.00;1.00;;;;;15.23;79.81;100902.22;5037499;28;45319;-79
2023/05/09 09:54:03;;;;;;;;;1.00;1.00;;;;;15.15;78.95;100903.56;5037366;28;45513;-81
2023/05/09 09:56:43;;;;;;;;;2.00;0.50;;;;;14.94;79.52;100877.91;5033122;28;47384;-81
2023/05/09 09:59:20;;;;;;;;;2.00;1.00;;;;;15.06;79.58;100890.63;5033822;28;45580;-80
2023/05/09 10:02:03;;;;;;;;;0.25;0.25;;;;;14.91;79.71;100859.19;5037346;28;45393;-82
2023/05/09 10:04:34;;;;;;;;;2.00;1.00;;;;;14.95;79.90;100859.88;5035968;28;45458;-81
2023/05/09 10:07:05;;;;;;;;;0.00;0.00;;;;;15.08;80.40;100882.44;5037724;28;46303;-80
2023/05/09 10:09:31;;;;;;;;;1.00;1.00;;;;;15.12;80.72;100886.69;5037572;28;45426;-80
2023/05/09 10:12:02;;;;;;;;;1.00;1.00;;;;;15.02;80.53;100859.41;5037629;28;45542;-79
2023/05/09 10:14:30;;;;;;;;;0.00;0.00;;;;;15.09;79.82;100876.94;5037874;28;45212;-79
2023/05/09 10:16:56;;;;;;;;;1.00;1.00;;;;;15.09;80.81;100878.78;5037197;28;46307;-80
2023/05/09 10:19:23;;;;;;;;;1.00;1.00;;;;;14.90;81.13;100852.06;5037277;28;45410;-78
2023/05/09 10:22:04;;;;;;;;;1.00;1.00;;;;;15.05;81.67;100875.41;5037587;28;45271;-81
2023/05/09 10:24:55;;;;;;;;;0.50;0.50;;;;;14.91;81.55;100856.50;5038068;28;45431;-80
2023/05/09 10:27:25;;;;;;;;;1.00;1.00;;;;;15.03;81.74;100868.38;5048817;28;47279;-79
2023/05/09 10:30:00;;;;;;;;;1.25;1.25;;;;;14.94;81.68;100832.00;5030817;28;45268;-80
2023/05/09 10:32:51;;;;;;;;;2.00;1.00;;;;;15.19;81.70;100860.16;5035666;28;45456;-82
2023/05/09 10:35:18;;;;;;;;;0.00;0.00;;;;;15.10;82.02;100859.78;5036801;28;45492;-81
2023/05/09 10:37:44;;;;;;;;;2.00;1.00;;;;;14.87;82.32;100808.19;5035399;28;47274;-80
2023/05/09 10:40:14;;;;;;;;;0.00;0.00;;;;;14.88;82.00;100794.63;5036466;28;45434;-82
2023/05/09 10:42:43;;;;;;;;;0.75;0.75;;;;;15.11;82.06;100834.53;5037119;28;45552;-80
2023/05/09 10:45:11;;;;;;;;;1.00;1.00;;;;;15.25;82.60;100843.56;5037052;28;45446;-79
2023/05/09 10:47:38;;;;;;;;;1.00;1.00;;;;;15.18;82.37;100826.88;5036541;28;47224;-80
2023/05/09 10:50:06;;;;;;;;;0.00;0.00;;;;;15.19;82.54;100841.25;5037159;28;45320;-80
2023/05/09 10:52:32;;;;;;;;;0.00;0.00;;;;;15.19;83.02;100828.63;5037083;28;45451;-79
2023/05/09 10:55:00;;;;;;;;;1.00;1.00;;;;;15.19;82.92;100801.63;5036658;28;45579;-80
2023/05/09 10:57:30;;;;;;;;;1.00;1.00;;;;;15.19;82.45;100798.06;5034760;28;45764;-79
2023/05/09 10:59:57;;;;;;;;;0.00;0.00;;;;;15.43;81.82;100842.41;5037012;28;45142;-80
2023/05/09 11:02:29;;;;;;;;;1.00;1.00;;;;;15.32;82.31;100834.09;5036753;28;45292;-81
2023/05/09 11:05:18;;;;;;;;;1.50;1.00;;;;;15.21;82.67;100793.44;5037028;28;46192;-81
2023/05/09 11:07:44;;;;;;;;;0.75;0.75;;;;;15.40;82.42;100827.25;5037010;28;45534;-79
2023/05/09 11:10:16;;;;;;;;;0.50;0.50;;;;;15.46;82.89;100837.66;5037081;28;45491;-83
2023/05/09 11:12:56;;;;;;;;;2.00;2.00;;;;;15.45;82.73;100819.72;5037231;28;45227;-80
2023/05/09 11:15:21;;;;;;;;;2.00;2.00;;;;;15.31;83.05;100773.81;5036496;28;45279;-79
2023/05/09 11:17:51;;;;;;;;;1.00;1.00;;;;;15.44;82.44;100779.28;5036403;28;45377;-80
2023/05/09 11:20:17;;;;;;;;;1.50;1.50;;;;;15.69;81.82;100824.53;5036306;28;45322;-79
2023/05/09 11:22:43;;;;;;;;;1.50;1.50;;;;;15.62;82.88;100804.28;5035162;28;45307;-82
2023/05/09 11:25:11;;;;;;;;;1.00;1.00;;;;;15.49;82.34;100782.53;5036988;28;45480;-82
2023/05/09 11:27:45;;;;;;;;;3.00;3.00;;;;;15.58;82.57;100779.28;5036441;28;46159;-80
2023/05/09 11:30:13;;;;;;;;;1.00;1.00;;;;;15.92;82.59;100820.28;5036140;28;45340;-83
2023/05/09 11:32:54;;;;;;;;;0.25;0.25;;;;;15.94;81.62;100823.75;5036123;28;45524;-81
2023/05/09 11:35:21;;;;;;;;;0.00;0.00;;;;;15.68;81.54;100780.41;5035634;28;45593;-80
2023/05/09 11:38:02;;;;;;;;;0.00;0.00;;;;;15.84;82.14;100808.16;5036063;28;45400;-79
2023/05/09 11:40:29;;;;;;;;;0.00;0.00;;;;;15.71;82.09;100793.72;5036010;28;45406;-81
2023/05/09 11:42:58;;;;;;;;;1.00;1.00;;;;;15.59;82.44;100766.63;5036195;28;45327;-80
2023/05/09 11:45:31;;;;;;;;;0.75;0.75;;;;;15.47;81.78;100743.97;5034534;28;45801;-80
2023/05/09 11:47:58;;;;;;;;;1.00;1.00;;;;;15.84;82.60;100804.56;5036004;28;45420;-82
2023/05/09 11:50:24;;;;;;;;;0.00;0.00;;;;;15.94;82.80;100813.81;5036248;28;45502;-81
2023/05/09 11:52:49;;;;;;;;;0.50;0.50;;;;;15.72;81.30;100781.94;5036046;28;45426;-82
2023/05/09 11:55:17;;;;;;;;;4.00;2.00;;;;;15.96;83.62;100803.78;5036210;28;45304;-81
2023/05/09 11:57:47;;;;;;;;;0.00;0.00;;;;;16.05;82.52;100810.38;5036188;28;45330;-81
2023/05/09 12:00:16;;;;;;;;;0.50;0.50;;;;;15.97;82.49;100783.88;5035930;28;45493;-81
2023/05/09 12:02:44;;;;;;;;;3.25;0.00;;;;;16.22;81.95;100810.97;5035821;28;45497;-82
2023/05/09 12:05:12;;;;;;;;;0.00;0.00;;;;;16.19;82.26;100792.25;5036459;28;46580;-81
2023/05/09 12:07:41;;;;;;;;;0.25;0.25;;;;;16.39;82.47;100806.25;5035682;28;46725;-81
2023/05/09 12:10:11;;;;;;;;;1.00;1.00;;;;;16.45;81.57;100803.13;5036424;28;45201;-81
2023/05/09 12:12:45;;;;;;;;;0.00;0.00;;;;;16.18;81.04;100757.19;5036624;28;45436;-78
2023/05/09 12:15:14;;;;;;;;;0.00;0.00;;;;;16.24;81.12;100779.28;5036054;28;45567;-83
2023/05/09 12:17:41;;;;;;;;;0.75;0.75;;;;;16.41;81.73;100807.88;5036529;28;46147;-82
2023/05/09 12:20:07;;;;;;;;;0.00;0.00;;;;;16.10;81.42;100773.94;5035812;28;45350;-81
2023/05/09 12:22:33;;;;;;;;;0.00;0.00;;;;;16.35;82.71;100807.41;5036917;28;45518;-80
2023/05/09 12:25:00;;;;;;;;;1.00;1.00;;;;;16.37;82.34;100811.75;5035327;28;45399;-79
2023/05/09 12:27:27;;;;;;;;;0.00;0.00;;;;;16.28;82.10;100797.03;5033991;28;45346;-79
2023/05/09 12:29:53;;;;;;;;;0.25;0.25;;;;;16.19;81.89;100772.44;5035387;28;45545;-79
2023/05/09 12:32:19;;;;;;;;;2.75;1.00;;;;;16.31;82.70;100786.97;5035035;28;45334;-80
2023/05/09 12:34:47;;;;;;;;;1.00;1.00;;;;;16.23;82.63;100768.56;5034827;28;45314;-80
2023/05/09 12:37:17;;;;;;;;;0.00;0.00;;;;;16.31;80.34;100774.31;5047483;28;47260;-80
2023/05/09 12:39:44;;;;;;;;;0.00;0.00;;;;;16.49;80.77;100801.94;5031122;28;45332;-81
2023/05/09 12:42:12;;;;;;;;;1.00;1.00;;;;;16.54;81.84;100814.16;5035096;28;45533;-79
2023/05/09 12:44:38;;;;;;;;;0.25;0.25;;;;;16.36;81.52;100776.69;5034804;28;45393;-83
2023/05/09 12:47:04;;;;;;;;;0.75;0.75;;;;;16.66;80.66;100806.22;5034768;28;46700;-82
2023/05/09 12:49:30;;;;;;;;;1.00;1.00;;;;;16.53;81.16;100793.50;5035448;28;45274;-80
2023/05/09 12:51:59;;;;;;;;;1.00;1.00;;;;;16.32;80.70;100746.28;5035351;28;45456;-80
2023/05/09 12:54:26;;;;;;;;;0.50;0.50;;;;;16.63;80.55;100802.75;5035012;28;45523;-81
2023/05/09 12:56:55;;;;;;;;;1.00;1.00;;;;;16.54;81.05;100791.66;5046618;28;47264;-80
2023/05/09 12:59:25;;;;;;;;;2.25;0.75;;;;;16.63;81.61;100785.63;5031498;28;45553;-79
2023/05/09 13:01:58;;;;;;;;;1.00;1.00;;;;;16.74;80.26;100806.53;5034849;28;45324;-82
2023/05/09 13:04:26;;;;;;;;;1.50;1.50;;;;;16.75;80.67;100802.84;5034827;28;45590;-82
2023/05/09 13:06:54;;;;;;;;;0.00;0.00;;;;;16.81;80.10;100784.34;5034906;28;46113;-78
2023/05/09 13:09:21;;;;;;;;;1.00;1.00;;;;;16.84;81.14;100773.25;5034935;28;45298;-82
2023/05/09 13:11:48;;;;;;;;;1.00;1.00;;;;;16.51;80.28;100703.41;5034591;28;45421;-81
2023/05/09 13:14:13;;;;;;;;;1.00;1.00;;;;;17.15;80.15;100792.75;5035305;28;45596;-81
2023/05/09 13:16:40;;;;;;;;;2.00;2.00;;;;;17.31;80.81;100791.50;5035839;28;46531;-79
2023/05/09 13:19:06;;;;;;;;;0.50;0.50;;;;;17.43;77.23;100792.47;5036234;28;45532;-79
2023/05/09 13:21:32;;;;;;;;;3.75;1.75;;;;;17.48;78.53;100793.00;5036233;28;45569;-80
2023/05/09 13:23:57;;;;;;;;;1.00;1.00;;;;;17.34;78.63;100764.19;5034706;28;45481;-81
2023/05/09 13:26:23;;;;;;;;;1.00;1.00;;;;;17.57;78.89;100794.16;5034640;28;45939;-80
2023/05/09 13:28:48;;;;;;;;;2.00;2.00;;;;;17.52;78.40;100764.69;5035424;28;45316;-80
2023/05/09 13:31:14;;;;;;;;;2.00;2.00;;;;;17.82;76.88;100782.38;5038129;28;45429;-80
2023/05/09 13:33:40;;;;;;;;;1.25;1.00;;;;;17.66;76.73;100755.53;5039036;28;45488;-81
2023/05/09 13:36:06;;;;;;;;;0.00;0.00;;;;;17.95;76.45;100789.44;5036607;28;47668;-79
2023/05/09 13:38:35;;;;;;;;;1.00;1.00;;;;;17.72;76.60;100752.38;5034747;28;45369;-81
2023/05/09 13:41:01;;;;;;;;;2.00;0.25;;;;;17.85;75.50;100760.44;5036015;28;45340;-80
2023/05/09 13:43:26;;;;;;;;;1.25;1.25;;;;;18.03;76.71;100773.44;5034239;28;45240;-81
2023/05/09 13:45:52;;;;;;;;;1.00;1.00;;;;;18.05;74.93;100773.34;5034521;28;46433;-81
2023/05/09 13:48:17;;;;;;;;;0.00;0.00;;;;;17.85;74.13;100731.50;5034766;28;45378;-80
2023/05/09 13:50:42;;;;;;;;;1.25;1.25;;;;;17.96;75.34;100739.66;5035072;28;45363;-82
2023/05/09 13:53:07;;;;;;;;;1.00;1.00;;;;;18.25;74.72;100759.13;5034616;28;46061;-79
2023/05/09 13:55:34;;;;;;;;;1.00;1.00;;;;;18.34;73.63;100762.97;5035239;28;45902;-80
2023/05/09 13:57:59;;;;;;;;;1.00;1.00;;;;;18.29;74.45;100741.59;5035679;28;45208;-80
2023/05/09 14:00:25;;;;;;;;;1.00;1.00;;;;;18.27;72.46;100740.00;5035714;28;45208;-81
2023/05/09 14:02:51;;;;;;;;;0.00;0.00;;;;;18.13;71.69;100722.06;5036238;28;46188;-82
2023/05/09 14:05:17;;;;;;;;;2.00;1.00;;;;;18.11;71.86;100743.91;5036809;28;45422;-81
2023/05/09 14:07:42;;;;;;;;;2.00;1.00;;;;;17.93;72.91;100723.63;5037820;28;45401;-80
2023/05/09 14:10:08;;;;;;;;;1.50;1.00;;;;;18.22;73.19;100743.06;5038776;28;45358;-80
2023/05/09 14:12:34;;;;;;;;;1.75;1.00;;;;;18.06;71.16;100704.53;5036860;28;45533;-80
2023/05/09 14:14:59;;;;;;;;;3.00;2.00;;;;;18.35;70.32;100757.44;5036963;28;45969;-80
2023/05/09 14:17:25;;;;;;;;;2.00;1.00;;;;;18.27;71.16;100749.00;5037025;28;45331;-81
2023/05/09 14:19:50;;;;;;;;;1.00;1.00;;;;;18.25;71.39;100747.41;5035844;28;45284;-80
2023/05/09 14:22:16;;;;;;;;;1.00;1.00;;;;;18.21;69.54;100760.31;5036983;28;45413;-80
2023/05/09 14:24:41;;;;;;;;;0.00;0.00;;;;;18.15;70.19;100742.69;5037042;28;45427;-80
2023/05/09 14:27:07;;;;;;;;;0.25;0.25;;;;;18.21;71.11;100754.03;5035520;28;45301;-80
2023/05/09 14:29:33;;;;;;;;;2.00;0.50;;;;;18.17;70.41;100738.97;5037327;28;45493;-80
2023/05/09 14:31:58;;;;;;;;;1.50;1.00;;;;;18.18;71.17;100733.44;5038478;28;45275;-79
2023/05/09 14:34:24;;;;;;;;;0.75;0.75;;;;;18.19;70.23;100721.63;5038703;28;47449;-80
2023/05/09 14:36:49;;;;;;;;;1.00;1.00;;;;;18.41;70.15;100765.09;5039208;28;45300;-82
2023/05/09 14:39:15;;;;;;;;;1.00;1.00;;;;;18.44;69.23;100755.84;5040198;28;45357;-80
2023/05/09 14:41:40;;;;;;;;;1.00;1.00;;;;;18.51;68.80;100757.09;5038573;28;45294;-81
2023/05/09 14:44:06;;;;;;;;;1.00;1.00;;;;;18.37;68.39;100724.75;5038402;28;46178;-82
2023/05/09 14:46:32;;;;;;;;;1.00;1.00;;;;;18.41;68.68;100737.06;5038436;28;45306;-81
2023/05/09 14:49:02;;;;;;;;;1.00;1.00;;;;;18.62;68.96;100748.13;5039689;28;45334;-83
2023/05/09 14:51:28;;;;;;;;;2.75;1.25;;;;;18.84;67.33;100748.13;5038454;28;45477;-82
2023/05/09 14:53:54;;;;;;;;;3.75;2.00;;;;;19.03;65.74;100714.91;5037120;28;46164;-81
2023/05/09 14:56:19;;;;;;;;;2.00;1.25;;;;;19.54;64.81;100736.97;5036978;28;45897;-82
2023/05/09 14:58:44;;;;;;;;;3.50;2.00;;;;;19.96;64.62;100746.97;5037400;28;45211;-83
2023/05/09 15:01:12;;;;;;;;;1.00;1.00;;;;;20.09;62.18;100741.31;5036909;28;45563;-83
2023/05/09 15:03:38;;;;;;;;;5.00;2.00;;;;;20.08;63.47;100725.97;5036690;28;45613;-81
2023/05/09 15:06:03;;;;;;;;;1.50;1.00;;;;;19.92;62.13;100712.81;5052018;28;45370;-83
2023/05/09 15:08:29;;;;;;;;;2.50;2.50;;;;;20.03;61.84;100740.00;5036483;28;45398;-83
2023/05/09 15:10:56;;;;;;;;;2.75;2.75;;;;;19.72;62.10;100705.50;5036579;28;45380;-82
2023/05/09 15:13:21;;;;;;;;;3.50;3.50;;;;;19.66;62.60;100716.88;5036534;28;45635;-83
2023/05/09 15:15:47;;;;;;;;;2.75;2.75;;;;;19.74;63.32;100738.88;5035941;28;45173;-82
2023/05/09 15:18:14;;;;;;;;;2.25;2.25;;;;;19.56;63.71;100715.97;5036417;28;45580;-83
2023/05/09 15:20:40;;;;;;;;;2.25;2.25;;;;;19.52;63.74;100704.47;5036316;28;45604;-81
2023/05/09 15:23:06;;;;;;;;;2.00;2.00;;;;;19.63;63.73;100728.03;5036036;28;46227;-81
2023/05/09 15:25:32;;;;;;;;;4.00;3.50;;;;;19.73;63.38;100742.59;5034367;28;45464;-82
2023/05/09 15:27:58;;;;;;;;;3.00;3.00;;;;;19.65;64.24;100717.88;5036221;28;45464;-82
2023/05/09 15:30:23;;;;;;;;;4.25;3.00;;;;;19.65;63.00;100707.00;5035890;28;45465;-82
2023/05/09 15:32:49;;;;;;;;;3.75;3.75;;;;;19.74;62.17;100698.06;5035604;28;45385;-81
2023/05/09 15:35:14;;;;;;;;;3.25;3.25;;;;;20.13;60.79;100734.63;5036054;28;45352;-81
2023/05/09 15:37:40;;;;;;;;;4.00;4.00;;;;;20.18;60.55;100721.47;5036404;28;45358;-83
2023/05/09 15:40:07;;;;;;;;;4.25;4.25;;;;;20.39;60.40;100725.13;5034299;28;45720;-81
2023/05/09 15:42:32;;;;;;;;;3.50;3.50;;;;;20.37;60.46;100694.41;5035677;28;46323;-82
2023/05/09 15:44:58;;;;;;;;;2.50;2.50;;;;;21.03;58.07;100723.97;5035986;28;45273;-81
2023/05/09 15:47:23;;;;;;;;;3.75;3.75;;;;;21.46;57.91;100686.38;5036099;28;45559;-82
2023/05/09 15:49:48;;;;;;;;;4.50;3.75;;;;;22.25;57.33;100716.31;5035655;28;45564;-83
2023/05/09 15:52:14;;;;;;;;;5.50;4.00;;;;;22.61;53.10;100674.53;5035763;28;45379;-82
2023/05/09 15:54:39;;;;;;;;;3.00;3.00;;;;;22.95;51.11;100673.97;5035501;28;45437;-83